createdAt,value
2018-07-09T00:00:56.069Z,100227.73
2018-07-09T00:03:23.687Z,100223.36
2018-07-09T00:05:52.181Z,100222.89
2018-07-09T00:08:20.014Z,100221.95
2018-07-09T00:11:00.863Z,100217.79
2018-07-09T00:13:29.636Z,100213.50
2018-07-09T00:15:57.595Z,100217.00
2018-07-09T00:18:25.249Z,100213.08
2018-07-09T00:20:52.945Z,100210.20
2018-07-09T00:23:20.620Z,100210.23
2018-07-09T00:25:49.141Z,100211.54
2018-07-09T00:28:17.723Z,100212.02
2018-07-09T00:30:45.346Z,100215.58
2018-07-09T00:33:13.076Z,100217.52
2018-07-09T00:35:40.693Z,100211.60
2018-07-09T00:38:08.348Z,100208.36
2018-07-09T00:40:35.975Z,100206.85
2018-07-09T00:43:03.709Z,100202.07
2018-07-09T00:45:31.306Z,100204.89
2018-07-09T00:47:58.907Z,100207.47
2018-07-09T00:50:26.610Z,100207.45
2018-07-09T00:52:54.198Z,100210.34
2018-07-09T00:55:21.858Z,100208.48
2018-07-09T00:57:49.937Z,100212.08
2018-07-09T01:00:17.558Z,100204.98
2018-07-09T01:02:45.230Z,100207.17
2018-07-09T01:05:12.856Z,100203.30
2018-07-09T01:07:40.506Z,100201.56
2018-07-09T01:10:08.249Z,100200.95
2018-07-09T01:12:35.852Z,100202.23
2018-07-09T01:15:03.539Z,100197.61
2018-07-09T01:17:31.172Z,100201.05
2018-07-09T01:19:58.960Z,100196.95
2018-07-09T01:22:26.819Z,100189.50
2018-07-09T01:24:54.518Z,100192.73
2018-07-09T01:27:22.223Z,100198.49
2018-07-09T01:29:49.921Z,100194.12
2018-07-09T01:32:17.545Z,100199.13
2018-07-09T01:34:45.259Z,100197.79
2018-07-09T01:37:13.003Z,100194.33
2018-07-09T01:39:40.593Z,100196.55
2018-07-09T01:42:08.151Z,100190.43
2018-07-09T01:44:35.781Z,100189.09
2018-07-09T01:47:03.423Z,100186.31
2018-07-09T01:49:31.000Z,100181.02
2018-07-09T01:51:58.691Z,100180.20
2018-07-09T01:54:26.394Z,100182.70
2018-07-09T01:56:54.030Z,100180.98
2018-07-09T01:59:21.681Z,100178.59
2018-07-09T02:01:49.396Z,100185.14
2018-07-09T02:04:17.078Z,100179.09
2018-07-09T02:06:44.774Z,100177.97
2018-07-09T02:09:12.430Z,100182.47
2018-07-09T02:11:40.054Z,100180.52
2018-07-09T02:14:07.806Z,100179.06
2018-07-09T02:16:35.433Z,100176.25
2018-07-09T02:19:03.050Z,100179.63
2018-07-09T02:21:30.674Z,100180.13
2018-07-09T02:23:58.265Z,100177.04
2018-07-09T02:26:25.924Z,100182.96
2018-07-09T02:28:53.569Z,100180.13
2018-07-09T02:31:21.349Z,100174.38
2018-07-09T02:33:49.106Z,100179.70
2018-07-09T02:36:16.765Z,100175.83
2018-07-09T02:38:44.417Z,100181.42
2018-07-09T02:41:12.016Z,100186.23
2018-07-09T02:43:39.641Z,100184.86
2018-07-09T02:46:07.345Z,100184.98
2018-07-09T02:48:34.937Z,100183.94
2018-07-09T02:51:02.538Z,100187.80
2018-07-09T02:53:30.173Z,100182.70
2018-07-09T02:55:57.887Z,100191.53
2018-07-09T02:58:25.585Z,100186.70
2018-07-09T03:00:53.440Z,100190.88
2018-07-09T03:03:21.129Z,100189.86
2018-07-09T03:05:48.723Z,100196.42
2018-07-09T03:08:16.375Z,100197.71
2018-07-09T03:10:44.051Z,100180.05
2018-07-09T03:13:11.709Z,100203.37
2018-07-09T03:15:39.337Z,100195.75
2018-07-09T03:18:06.962Z,100198.97
2018-07-09T03:20:34.591Z,100204.84
2018-07-09T03:23:02.871Z,100203.56
2018-07-09T03:25:30.514Z,100204.50
2018-07-09T03:27:58.250Z,100216.13
2018-07-09T03:30:25.816Z,100212.30
2018-07-09T03:32:53.468Z,100216.06
2018-07-09T03:35:21.087Z,100211.80
2018-07-09T03:37:48.692Z,100213.59
2018-07-09T03:40:16.311Z,100211.30
2018-07-09T03:42:43.997Z,100212.47
2018-07-09T03:45:11.732Z,100213.80
2018-07-09T03:47:39.397Z,100213.97
2018-07-09T03:50:07.059Z,100211.75
2018-07-09T03:52:34.677Z,100214.36
2018-07-09T03:55:02.397Z,100213.86
2018-07-09T03:57:29.957Z,100213.36
2018-07-09T03:59:57.560Z,100214.59
2018-07-09T04:02:25.142Z,100218.12
2018-07-09T04:04:52.793Z,100220.25
2018-07-09T04:07:20.452Z,100222.34
2018-07-09T04:09:48.056Z,100223.08
2018-07-09T04:12:15.711Z,100219.59
2018-07-09T04:14:43.387Z,100225.97
2018-07-09T04:17:11.060Z,100232.77
2018-07-09T04:19:38.742Z,100231.40
2018-07-09T04:22:06.474Z,100228.06
2018-07-09T04:24:34.080Z,100229.06
2018-07-09T04:27:01.734Z,100218.27
2018-07-09T04:29:29.361Z,100223.78
2018-07-09T04:31:57.014Z,100228.92
2018-07-09T04:34:24.617Z,100230.44
2018-07-09T04:36:52.187Z,100233.27
2018-07-09T04:39:19.813Z,100234.78
2018-07-09T04:41:47.423Z,100226.34
2018-07-09T04:44:15.087Z,100233.98
2018-07-09T04:46:42.665Z,100228.84
2018-07-09T04:49:10.325Z,100225.55
2018-07-09T04:51:37.967Z,100224.70
2018-07-09T04:54:05.689Z,100232.52
2018-07-09T04:56:33.314Z,100228.17
2018-07-09T04:59:00.973Z,100231.40
2018-07-09T05:01:28.641Z,100228.27
2018-07-09T05:03:56.232Z,100219.58
2018-07-09T05:06:23.820Z,100224.62
2018-07-09T05:08:51.574Z,100224.23
2018-07-09T05:11:19.245Z,100225.04
2018-07-09T05:13:46.906Z,100222.93
2018-07-09T05:16:14.524Z,100226.36
2018-07-09T05:18:42.176Z,100218.03
2018-07-09T05:21:09.767Z,100223.97
2018-07-09T05:23:37.449Z,100227.30
2018-07-09T05:26:05.200Z,100226.60
2018-07-09T05:28:32.801Z,100222.56
2018-07-09T05:31:00.449Z,100219.78
2018-07-09T05:33:28.056Z,100222.61
2018-07-09T05:35:55.657Z,100220.54
2018-07-09T05:38:23.841Z,100221.57
2018-07-09T05:40:51.601Z,100219.61
2018-07-09T05:43:19.337Z,100221.88
2018-07-09T05:45:46.999Z,100223.58
2018-07-09T05:48:14.758Z,100223.74
2018-07-09T05:50:42.461Z,100225.69
2018-07-09T05:53:10.168Z,100224.02
2018-07-09T05:55:38.313Z,100225.53
2018-07-09T05:58:06.604Z,100231.28
2018-07-09T06:00:34.227Z,100229.66
2018-07-09T06:03:01.835Z,100234.77
2018-07-09T06:05:29.492Z,100238.73
2018-07-09T06:07:57.316Z,100236.41
2018-07-09T06:12:59.395Z,100231.83
2018-07-09T06:15:27.242Z,100237.44
2018-07-09T06:17:55.111Z,100239.06
2018-07-09T06:20:22.760Z,100224.48
2018-07-09T06:22:50.375Z,100236.81
2018-07-09T06:25:17.995Z,100230.73
2018-07-09T06:27:45.611Z,100230.58
2018-07-09T06:30:13.194Z,100236.91
2018-07-09T06:32:40.886Z,100239.94
2018-07-09T06:35:08.514Z,100238.31
2018-07-09T06:37:36.184Z,100234.81
2018-07-09T06:40:03.882Z,100235.42
2018-07-09T06:42:31.542Z,100241.05
2018-07-09T06:44:59.204Z,100247.92
2018-07-09T06:47:26.968Z,100239.80
2018-07-09T06:49:54.609Z,100242.38
2018-07-09T06:52:22.273Z,100246.67
2018-07-09T06:54:49.979Z,100246.38
2018-07-09T06:57:17.712Z,100257.06
2018-07-09T06:59:45.329Z,100253.27
2018-07-09T07:02:12.968Z,100255.86
2018-07-09T07:04:40.607Z,100242.18
2018-07-09T07:07:08.271Z,100245.28
2018-07-09T07:09:35.940Z,100245.67
2018-07-09T07:12:03.631Z,100237.58
2018-07-09T07:14:31.280Z,100232.25
2018-07-09T07:16:58.993Z,100235.12
2018-07-09T07:19:26.642Z,100231.25
2018-07-09T07:21:54.303Z,100237.41
2018-07-09T07:24:22.102Z,100231.97
2018-07-09T07:26:49.731Z,100238.45
2018-07-09T07:29:17.436Z,100237.10
2018-07-09T07:31:45.127Z,100238.97
2018-07-09T07:34:12.784Z,100238.97
2018-07-09T07:36:40.476Z,100237.69
2018-07-09T07:39:08.107Z,100239.23
2018-07-09T07:41:35.792Z,100244.37
2018-07-09T07:44:03.478Z,100236.79
2018-07-09T07:46:31.169Z,100232.70
2018-07-09T07:48:58.864Z,100234.41
2018-07-09T07:51:26.576Z,100235.14
2018-07-09T07:54:00.833Z,100230.27
2018-07-09T07:56:28.442Z,100232.31
2018-07-09T07:58:56.102Z,100232.55
2018-07-09T08:01:23.806Z,100226.36
2018-07-09T08:03:51.528Z,100221.45
2018-07-09T08:06:19.330Z,100219.16
2018-07-09T08:08:47.028Z,100213.34
2018-07-09T08:11:14.747Z,100214.84
2018-07-09T08:13:42.402Z,100206.58
2018-07-09T08:16:09.985Z,100215.23
2018-07-09T08:18:37.677Z,100208.81
2018-07-09T08:21:05.307Z,100211.29
2018-07-09T08:23:32.911Z,100212.26
2018-07-09T08:26:00.437Z,100208.52
2018-07-09T08:28:28.019Z,100209.64
2018-07-09T08:30:55.642Z,100206.04
2018-07-09T08:33:23.241Z,100207.84
2018-07-09T08:35:50.940Z,100202.87
2018-07-09T08:38:18.637Z,100196.77
2018-07-09T08:40:46.244Z,100203.78
2018-07-09T08:43:13.846Z,100198.28
2018-07-09T08:45:41.452Z,100189.44
2018-07-09T08:48:09.053Z,100199.36
2018-07-09T08:50:36.922Z,100194.56
2018-07-09T08:53:04.926Z,100186.52
2018-07-09T08:55:32.512Z,100188.54
2018-07-09T08:58:00.140Z,100188.38
2018-07-09T09:00:28.452Z,100194.45
2018-07-09T09:02:56.112Z,100200.34
2018-07-09T09:05:23.828Z,100185.70
2018-07-09T09:07:51.528Z,100187.30
2018-07-09T09:10:19.340Z,100182.97
2018-07-09T09:12:46.963Z,100180.31
2018-07-09T09:15:14.618Z,100179.09
2018-07-09T09:17:42.327Z,100183.00
2018-07-09T09:20:10.022Z,100178.44
2018-07-09T09:22:37.715Z,100188.05
2018-07-09T09:25:05.667Z,100179.37
2018-07-09T09:27:33.479Z,100177.95
2018-07-09T09:30:01.217Z,100186.63
2018-07-09T09:32:28.848Z,100184.13
2018-07-09T09:34:56.602Z,100184.44
2018-07-09T09:37:24.630Z,100181.49
2018-07-09T09:39:52.304Z,100182.80
2018-07-09T09:42:19.925Z,100180.86
2018-07-09T09:44:47.637Z,100177.41
2018-07-09T09:47:15.582Z,100174.45
2018-07-09T09:49:43.283Z,100186.23
2018-07-09T09:52:10.919Z,100182.27
2018-07-09T09:54:38.603Z,100168.83
2018-07-09T09:57:06.222Z,100178.14
2018-07-09T09:59:33.819Z,100183.56
2018-07-09T10:02:01.395Z,100182.45
2018-07-09T10:04:29.174Z,100179.08
2018-07-09T10:06:56.802Z,100172.48
2018-07-09T10:09:24.440Z,100185.80
2018-07-09T10:11:52.374Z,100170.59
2018-07-09T10:14:20.030Z,100165.34
2018-07-09T10:16:47.675Z,100164.34
2018-07-09T10:19:15.350Z,100168.65
2018-07-09T10:21:43.001Z,100169.78
2018-07-09T10:24:10.685Z,100167.44
2018-07-09T10:26:38.288Z,100159.88
2018-07-09T10:29:06.027Z,100158.45
2018-07-09T10:31:33.981Z,100158.26
2018-07-09T10:34:01.682Z,100162.92
2018-07-09T10:36:30.337Z,100152.67
2018-07-09T10:38:58.139Z,100172.17
2018-07-09T10:41:25.806Z,100153.80
2018-07-09T10:43:53.535Z,100154.23
2018-07-09T10:46:21.177Z,100155.48
2018-07-09T10:48:48.955Z,100155.16
2018-07-09T10:51:16.582Z,100140.12
2018-07-09T10:53:44.279Z,100133.67
2018-07-09T10:56:11.964Z,100135.55
2018-07-09T10:58:39.662Z,100139.94
2018-07-09T11:01:07.406Z,100133.55
2018-07-09T11:03:35.081Z,100155.93
2018-07-09T11:06:02.807Z,100142.84
2018-07-09T11:08:30.474Z,100145.66
2018-07-09T11:10:58.174Z,100128.29
2018-07-09T11:13:26.274Z,100126.91
2018-07-09T11:15:53.969Z,100140.78
2018-07-09T11:18:21.962Z,100137.23
2018-07-09T11:20:49.718Z,100132.35
2018-07-09T11:23:17.415Z,100131.36
2018-07-09T11:25:45.089Z,100131.20
2018-07-09T11:28:12.761Z,100125.22
2018-07-09T11:30:40.381Z,100117.27
2018-07-09T11:33:08.092Z,100124.87
2018-07-09T11:35:35.761Z,100123.69
2018-07-09T11:38:03.317Z,100122.89
2018-07-09T11:40:30.953Z,100134.15
2018-07-09T11:42:58.595Z,100115.17
2018-07-09T11:45:26.395Z,100111.91
2018-07-09T11:47:54.061Z,100132.57
2018-07-09T11:50:21.671Z,100119.55
2018-07-09T11:52:49.283Z,100113.61
2018-07-09T11:55:16.955Z,100118.31
2018-07-09T11:57:44.641Z,100121.59
2018-07-09T12:00:12.291Z,100139.00
2018-07-09T12:02:40.053Z,100145.93
2018-07-09T12:05:07.830Z,100129.55
2018-07-09T12:07:35.463Z,100133.66
2018-07-09T12:10:03.664Z,100125.11
2018-07-09T12:12:31.326Z,100123.64
2018-07-09T12:14:58.970Z,100123.81
2018-07-09T12:17:26.653Z,100139.12
2018-07-09T12:19:54.291Z,100127.45
2018-07-09T12:22:23.042Z,100118.40
2018-07-09T12:24:50.768Z,100134.16
2018-07-09T12:27:18.469Z,100128.04
2018-07-09T12:29:46.142Z,100119.35
2018-07-09T12:32:13.884Z,100118.53
2018-07-09T12:34:41.668Z,100125.31
2018-07-09T12:37:09.389Z,100129.19
2018-07-09T12:39:37.004Z,100116.70
2018-07-09T12:42:04.710Z,100122.66
2018-07-09T12:44:33.118Z,100117.36
2018-07-09T12:47:00.716Z,100107.12
2018-07-09T12:49:28.424Z,100114.27
2018-07-09T12:51:56.487Z,100121.53
2018-07-09T12:54:24.303Z,100107.30
2018-07-09T12:56:52.045Z,100102.45
2018-07-09T12:59:19.761Z,100096.53
2018-07-09T13:01:47.595Z,100092.61
2018-07-09T13:04:15.217Z,100101.58
2018-07-09T13:06:43.559Z,100104.32
2018-07-09T13:09:11.175Z,100103.50
2018-07-09T13:11:38.986Z,100106.84
2018-07-09T13:14:06.649Z,100095.38
2018-07-09T13:16:34.951Z,100093.12
2018-07-09T13:19:02.651Z,100091.70
2018-07-09T13:21:31.187Z,100097.84
2018-07-09T13:23:59.158Z,100097.43
2018-07-09T13:26:26.758Z,100101.46
2018-07-09T13:28:54.570Z,100066.73
2018-07-09T13:31:22.273Z,100092.25
2018-07-09T13:33:49.929Z,100092.89
2018-07-09T13:36:17.566Z,100087.30
2018-07-09T13:38:45.248Z,100103.30
2018-07-09T13:41:12.897Z,100073.36
2018-07-09T13:43:40.531Z,100077.52
2018-07-09T13:46:08.253Z,100075.95
2018-07-09T13:48:36.022Z,100084.13
2018-07-09T13:51:03.709Z,100074.14
2018-07-09T13:53:31.413Z,100071.60
2018-07-09T13:55:59.180Z,100083.97
2018-07-09T13:58:27.478Z,100066.73
2018-07-09T14:00:55.076Z,100065.25
2018-07-09T14:03:22.750Z,100067.45
2018-07-09T14:05:50.789Z,100065.14
2018-07-09T14:08:18.461Z,100099.92
2018-07-09T14:10:46.139Z,100062.74
2018-07-09T14:13:13.965Z,100076.52
2018-07-09T14:15:41.551Z,100056.53
2018-07-09T14:18:09.311Z,100059.17
2018-07-09T14:20:38.311Z,100074.19
2018-07-09T14:23:07.015Z,100056.22
2018-07-09T14:25:34.982Z,100057.69
2018-07-09T14:28:03.034Z,100045.84
2018-07-09T14:30:30.810Z,100032.92
2018-07-09T14:32:58.759Z,100052.45
2018-07-09T14:35:26.625Z,100044.75
2018-07-09T14:37:54.411Z,100049.12
2018-07-09T14:40:22.453Z,100038.91
2018-07-09T14:42:50.191Z,100045.00
2018-07-09T14:45:17.921Z,100027.67
2018-07-09T14:47:45.533Z,100025.31
2018-07-09T14:50:13.284Z,100033.84
2018-07-09T14:52:40.960Z,100041.17
2018-07-09T14:55:08.655Z,100028.87
2018-07-09T14:57:36.362Z,100019.30
2018-07-09T15:00:05.347Z,100034.88
2018-07-09T15:02:33.074Z,100021.55
2018-07-09T15:05:00.722Z,100020.63
2018-07-09T15:07:28.486Z,100002.75
2018-07-09T15:09:56.204Z,100022.93
2018-07-09T15:12:24.010Z,99996.20
2018-07-09T15:14:51.766Z,100007.65
2018-07-09T15:17:19.502Z,100008.69
2018-07-09T15:19:47.284Z,99997.92
2018-07-09T15:22:14.995Z,99995.06
2018-07-09T15:24:42.837Z,100000.02
2018-07-09T15:27:10.857Z,99990.66
2018-07-09T15:29:38.649Z,99985.08
2018-07-09T15:32:19.457Z,99983.86
2018-07-09T15:34:47.387Z,99984.15
2018-07-09T15:37:15.365Z,99987.05
2018-07-09T15:39:43.215Z,99980.23
2018-07-09T15:42:11.133Z,99986.30
2018-07-09T15:44:38.987Z,99980.02
2018-07-09T15:47:06.763Z,99987.75
2018-07-09T15:49:34.803Z,99972.91
2018-07-09T15:52:02.430Z,99970.64
2018-07-09T15:54:30.124Z,99973.24
2018-07-09T15:56:57.788Z,99975.78
2018-07-09T15:59:25.468Z,99975.66
2018-07-09T16:01:53.162Z,99974.03
2018-07-09T16:04:20.878Z,99984.15
2018-07-09T16:06:48.506Z,99968.16
2018-07-09T16:09:16.196Z,99970.13
2018-07-09T16:11:44.525Z,99960.48
2018-07-09T16:14:12.333Z,99967.76
2018-07-09T16:16:40.208Z,99961.52
2018-07-09T16:19:08.183Z,99958.80
2018-07-09T16:21:35.836Z,99963.16
2018-07-09T16:24:03.646Z,99954.14
2018-07-09T16:26:31.362Z,99949.26
2018-07-09T16:28:59.073Z,99950.16
2018-07-09T16:31:26.730Z,99955.64
2018-07-09T16:33:54.539Z,99948.02
2018-07-09T16:36:27.727Z,99949.93
2018-07-09T16:38:55.910Z,99938.16
2018-07-09T16:41:24.070Z,99942.97
2018-07-09T16:43:52.142Z,99942.48
2018-07-09T16:46:20.081Z,99934.39
2018-07-09T16:48:48.084Z,99939.34
2018-07-09T16:51:16.560Z,99930.17
2018-07-09T16:53:44.698Z,99941.00
2018-07-09T16:56:12.754Z,99920.48
2018-07-09T16:58:40.784Z,99922.64
2018-07-09T17:01:08.683Z,99921.80
2018-07-09T17:03:36.598Z,99918.34
2018-07-09T17:06:05.091Z,99920.64
2018-07-09T17:08:32.970Z,99920.42
2018-07-09T17:14:05.839Z,99925.23
2018-07-09T17:16:36.714Z,99912.84
2018-07-09T17:19:25.874Z,99918.61
2018-07-09T17:21:58.102Z,99924.61
2018-07-09T17:24:29.240Z,99925.48
2018-07-09T17:27:02.618Z,99920.84
2018-07-09T17:29:34.333Z,99920.88
2018-07-09T17:32:53.158Z,99908.58
2018-07-09T17:35:33.929Z,99916.30
2018-07-09T17:38:03.474Z,99922.38
2018-07-09T17:40:34.921Z,99913.41
2018-07-09T17:43:11.824Z,99926.23
2018-07-09T17:45:48.068Z,99923.88
2018-07-09T17:48:29.918Z,99924.46
2018-07-09T17:51:00.550Z,99910.85
2018-07-09T17:53:32.986Z,99911.43
2018-07-09T17:56:08.368Z,99911.37
2018-07-09T17:58:51.770Z,99913.30
2018-07-09T18:01:23.146Z,99901.56
2018-07-09T18:03:53.576Z,99912.88
2018-07-09T18:09:13.742Z,99915.72
2018-07-09T18:14:23.543Z,99913.41
2018-07-09T18:16:53.837Z,99914.90
2018-07-09T18:19:23.990Z,99910.53
2018-07-09T18:24:36.111Z,99919.06
2018-07-09T18:27:07.658Z,99913.95
2018-07-09T18:29:42.889Z,99921.75
2018-07-09T18:32:14.614Z,99914.65
2018-07-09T18:34:45.084Z,99914.73
2018-07-09T18:37:18.681Z,99921.67
2018-07-09T18:39:51.229Z,99921.71
2018-07-09T18:42:24.253Z,99914.41
2018-07-09T18:50:51.658Z,99919.01
2018-07-09T18:53:21.712Z,99911.78
2018-07-09T18:55:52.251Z,99912.63
2018-07-09T18:58:23.305Z,99919.52
2018-07-09T19:00:54.228Z,99915.39
2018-07-09T19:03:30.239Z,99922.95
2018-07-09T19:07:27.524Z,99920.55
2018-07-09T19:09:58.541Z,99921.44
2018-07-09T19:12:37.568Z,99921.14
2018-07-09T19:15:09.839Z,99920.01
2018-07-09T19:18:09.859Z,99920.33
2018-07-09T19:21:57.079Z,99910.78
2018-07-09T19:24:25.335Z,99928.27
2018-07-09T19:27:01.212Z,99926.30
2018-07-09T19:29:29.286Z,99943.09
2018-07-09T19:31:57.998Z,99937.89
2018-07-09T19:34:25.969Z,99931.03
2018-07-09T19:36:54.245Z,99938.56
2018-07-09T19:39:22.696Z,99941.50
2018-07-09T19:41:51.797Z,99943.94
2018-07-09T19:44:19.662Z,99943.17
2018-07-09T19:46:47.718Z,99942.11
2018-07-09T19:49:15.601Z,99947.69
2018-07-09T19:51:43.774Z,99940.45
2018-07-09T19:54:11.536Z,99951.48
2018-07-09T19:56:39.714Z,99950.24
2018-07-09T19:59:07.788Z,99956.16
2018-07-09T20:01:35.353Z,99946.39
2018-07-09T20:04:04.178Z,99947.67
2018-07-09T20:06:33.215Z,99939.30
2018-07-09T20:13:54.167Z,99944.84
2018-07-09T20:16:27.509Z,99954.84
2018-07-09T20:18:55.842Z,99949.22
2018-07-09T20:21:24.735Z,99952.98
2018-07-09T20:23:52.187Z,99947.37
2018-07-09T20:26:20.616Z,99942.75
2018-07-09T20:28:48.330Z,99948.77
2018-07-09T20:31:16.296Z,99945.49
2018-07-09T20:33:44.266Z,99935.98
2018-07-09T20:36:13.571Z,99939.17
2018-07-09T20:38:42.763Z,99945.89
2018-07-09T20:41:11.329Z,99941.17
2018-07-09T20:43:40.033Z,99945.89
2018-07-09T20:50:16.928Z,99949.94
2018-07-09T20:52:45.114Z,99949.63
2018-07-09T20:55:14.114Z,99943.05
2018-07-09T20:58:01.647Z,99946.78
2018-07-09T21:00:33.602Z,99941.06
2018-07-09T21:03:03.820Z,99945.28
2018-07-09T21:05:47.288Z,99941.61
2018-07-09T21:08:18.860Z,99940.17
2018-07-09T21:11:00.708Z,99936.50
2018-07-09T21:13:30.986Z,99930.56
2018-07-09T21:15:59.361Z,99929.23
2018-07-09T21:18:27.476Z,99930.57
2018-07-09T21:20:54.764Z,99929.57
2018-07-09T21:25:55.349Z,99934.55
2018-07-09T21:28:23.653Z,99931.96
2018-07-09T21:30:52.347Z,99935.66
2018-07-09T21:33:21.646Z,99930.50
2018-07-09T21:35:48.948Z,99929.50
2018-07-09T21:38:17.746Z,99928.14
2018-07-09T21:40:45.221Z,99933.13
2018-07-09T21:43:14.430Z,99933.92
2018-07-09T21:45:42.714Z,99928.14
2018-07-09T21:48:11.601Z,99924.52
2018-07-09T21:50:43.556Z,99929.67
2018-07-09T21:53:12.301Z,99932.70
2018-07-09T21:55:42.757Z,99929.93
2018-07-09T21:58:11.241Z,99929.77
2018-07-09T22:00:39.419Z,99933.08
2018-07-09T22:03:07.550Z,99934.27
2018-07-09T22:05:35.142Z,99929.28
2018-07-09T22:08:03.011Z,99933.30
2018-07-09T22:10:30.806Z,99942.47
2018-07-09T22:12:58.468Z,99934.30
2018-07-09T22:18:12.305Z,99937.05
2018-07-09T22:20:40.196Z,99938.74
2018-07-09T22:27:44.285Z,99940.98
2018-07-09T22:30:12.699Z,99946.13
2018-07-09T22:32:49.809Z,99939.27
2018-07-09T22:35:24.734Z,99943.20
2018-07-09T22:37:54.725Z,99942.53
2018-07-09T22:40:58.764Z,99943.00
2018-07-09T22:44:06.597Z,99952.48
2018-07-09T22:46:36.592Z,99942.37
2018-07-09T22:52:25.438Z,99943.41
2018-07-09T22:55:12.710Z,99949.89
2018-07-09T22:57:42.391Z,99953.39
2018-07-09T23:00:13.147Z,99949.92
2018-07-09T23:03:28.852Z,99948.33
2018-07-09T23:06:00.132Z,99949.27
2018-07-09T23:08:30.641Z,99952.39
2018-07-09T23:16:42.762Z,99959.41
2018-07-09T23:19:31.885Z,99965.31
2018-07-09T23:22:19.120Z,99965.98
2018-07-09T23:24:47.026Z,99967.52
2018-07-09T23:27:15.112Z,99968.17
2018-07-09T23:29:44.823Z,99965.63
2018-07-09T23:32:13.604Z,99968.99
2018-07-09T23:34:42.470Z,99969.34
2018-07-09T23:37:08.901Z,99958.42
2018-07-09T23:39:35.291Z,99958.63
2018-07-09T23:46:23.522Z,99951.88
2018-07-09T23:48:49.988Z,99958.95
2018-07-09T23:51:16.370Z,99963.36
2018-07-09T23:53:42.805Z,99969.35
2018-07-09T23:59:34.633Z,99970.50
